Time;durP1;ratioP1;P1;durP2;ratioP2;P2;SDS_P1;SDS_P2;PMS_P1;PMS_P2;Temp;Humidity;BMP_temperature;BMP_pressure;BME280_temperature;BME280_humidity;BME280_pressure;Samples;Min_cycle;Max_cycle;Signal;HPM_P1;HPM_P2
2022/01/29 00:00:23;;;;;;;8.97;6.37;;;6.20;81.80;;;;;;5056670;28;20550;-48
2022/01/29 00:02:50;;;;;;;11.60;6.77;;;6.20;82.00;;;;;;5044822;28;20526;-48
2022/01/29 00:05:17;;;;;;;12.83;7.20;;;6.20;82.10;;;;;;5045671;28;20470;-48
2022/01/29 00:07:44;;;;;;;10.27;6.00;;;6.20;82.10;;;;;;5039742;28;20535;-50
2022/01/29 00:10:12;;;;;;;14.40;8.10;;;6.10;82.10;;;;;;5059861;28;20459;-49
2022/01/29 00:12:40;;;;;;;12.20;7.33;;;6.10;82.40;;;;;;5037764;28;20577;-48
2022/01/29 00:15:07;;;;;;;11.97;7.00;;;6.10;82.40;;;;;;5039620;28;20864;-49
2022/01/29 00:17:34;;;;;;;15.50;7.00;;;6.10;82.40;;;;;;5041805;28;20454;-48
2022/01/29 00:20:01;;;;;;;11.43;7.10;;;6.10;82.40;;;;;;5045880;28;20454;-49
2022/01/29 00:22:27;;;;;;;8.87;6.97;;;6.10;82.70;;;;;;5055028;28;20486;-48
2022/01/29 00:24:57;;;;;;;14.23;8.00;;;6.10;82.80;;;;;;5054018;28;20450;-49
2022/01/29 00:27:26;;;;;;;11.10;6.93;;;6.10;82.80;;;;;;5074600;28;20469;-48
2022/01/29 00:29:54;;;;;;;13.80;6.83;;;6.10;82.80;;;;;;5051904;28;20458;-49
2022/01/29 00:32:21;;;;;;;9.20;6.20;;;6.10;82.80;;;;;;5053975;28;20559;-49
2022/01/29 00:34:48;;;;;;;11.97;7.30;;;6.20;82.80;;;;;;5052513;28;20455;-48
2022/01/29 00:37:15;;;;;;;14.10;6.83;;;6.20;82.80;;;;;;5063219;28;20451;-49
2022/01/29 00:39:41;;;;;;;11.47;6.50;;;6.10;82.90;;;;;;5050645;28;20539;-48
2022/01/29 00:42:08;;;;;;;10.70;6.67;;;6.10;83.10;;;;;;5054515;28;20491;-48
2022/01/29 00:44:43;;;;;;;14.13;7.63;;;6.20;83.10;;;;;;5057522;28;20455;-49
2022/01/29 00:47:10;;;;;;;15.23;7.07;;;6.20;83.00;;;;;;5037369;28;20447;-48
2022/01/29 00:49:37;;;;;;;10.00;6.80;;;6.20;83.00;;;;;;5056557;28;21114;-49
2022/01/29 00:52:04;;;;;;;13.83;7.10;;;6.10;83.20;;;;;;5059138;28;20484;-48
2022/01/29 00:54:31;;;;;;;15.97;7.93;;;6.10;83.40;;;;;;5040914;28;20465;-48
2022/01/29 00:56:58;;;;;;;12.13;6.70;;;6.10;83.20;;;;;;5045631;28;20826;-49
2022/01/29 00:59:25;;;;;;;13.07;7.33;;;6.10;83.20;;;;;;5070737;28;20462;-49
2022/01/29 01:01:51;;;;;;;10.23;6.67;;;6.10;83.20;;;;;;5054666;28;20540;-48
2022/01/29 01:04:18;;;;;;;6.77;5.33;;;6.10;83.20;;;;;;5050426;28;20553;-48
2022/01/29 01:06:45;;;;;;;13.10;6.53;;;6.10;83.10;;;;;;5031118;28;20471;-48
2022/01/29 01:09:12;;;;;;;8.77;5.97;;;6.10;83.00;;;;;;5060410;28;20522;-48
2022/01/29 01:11:39;;;;;;;12.80;6.20;;;6.10;83.00;;;;;;5061352;28;20532;-49
2022/01/29 01:14:05;;;;;;;13.20;6.83;;;6.10;83.10;;;;;;5044914;28;20455;-48
2022/01/29 01:16:32;;;;;;;17.10;10.60;;;6.10;83.00;;;;;;5059552;28;20462;-49
2022/01/29 01:19:00;;;;;;;12.60;7.30;;;6.10;83.10;;;;;;5059968;28;20455;-48
2022/01/29 01:21:27;;;;;;;12.53;7.10;;;6.10;82.80;;;;;;5072470;28;20482;-48
2022/01/29 01:23:54;;;;;;;10.83;6.77;;;6.10;82.70;;;;;;5045313;28;20482;-48
2022/01/29 01:26:21;;;;;;;11.43;6.80;;;6.10;82.70;;;;;;5056032;28;20549;-48
2022/01/29 01:28:47;;;;;;;9.00;6.07;;;6.00;82.80;;;;;;5057501;28;20469;-48
2022/01/29 01:31:14;;;;;;;9.63;6.30;;;6.00;82.90;;;;;;5045586;28;20493;-48
2022/01/29 01:33:47;;;;;;;11.63;6.83;;;6.00;82.90;;;;;;5054215;28;20534;-48
2022/01/29 01:36:16;;;;;;;11.07;6.60;;;5.90;83.20;;;;;;5054739;28;20535;-48
2022/01/29 01:38:50;;;;;;;10.57;6.27;;;5.90;83.30;;;;;;5043086;28;20462;-49
2022/01/29 01:41:22;;;;;;;10.20;6.20;;;6.00;83.10;;;;;;5051470;28;21019;-48
2022/01/29 01:43:49;;;;;;;11.40;6.70;;;6.00;83.00;;;;;;5043052;28;20459;-48
2022/01/29 01:46:17;;;;;;;10.13;6.20;;;6.00;83.00;;;;;;5047876;28;20473;-48
2022/01/29 01:48:44;;;;;;;8.00;5.43;;;6.00;82.90;;;;;;5056369;28;20934;-48
2022/01/29 01:51:14;;;;;;;8.50;5.30;;;5.90;83.00;;;;;;5045137;28;21078;-47
2022/01/29 01:53:40;;;;;;;10.07;5.90;;;6.00;83.00;;;;;;5058557;28;20435;-48
2022/01/29 01:56:07;;;;;;;9.37;6.57;;;5.90;83.00;;;;;;5056578;28;20951;-49
2022/01/29 01:58:34;;;;;;;10.40;6.53;;;5.90;83.00;;;;;;5056530;28;20518;-48
2022/01/29 02:01:01;;;;;;;9.43;5.77;;;5.90;83.10;;;;;;5057394;28;20475;-48
2022/01/29 02:03:28;;;;;;;8.00;6.00;;;5.90;83.10;;;;;;5044709;28;20727;-48
2022/01/29 02:05:55;;;;;;;10.10;6.83;;;5.90;83.00;;;;;;5057714;28;20453;-48
2022/01/29 02:08:22;;;;;;;12.07;5.97;;;5.90;83.20;;;;;;5058115;28;20458;-48
2022/01/29 02:10:50;;;;;;;10.93;6.67;;;5.90;83.10;;;;;;5071245;28;20881;-48
2022/01/29 02:13:17;;;;;;;10.53;6.50;;;5.80;83.40;;;;;;5052712;28;20504;-48
2022/01/29 02:15:44;;;;;;;11.20;7.33;;;5.80;83.60;;;;;;5041308;28;20466;-48
2022/01/29 02:18:15;;;;;;;11.83;7.93;;;5.80;83.60;;;;;;5055997;28;20495;-48
2022/01/29 02:20:44;;;;;;;16.27;8.00;;;5.80;83.80;;;;;;5058730;28;20541;-48
2022/01/29 02:23:11;;;;;;;8.43;5.60;;;5.80;83.70;;;;;;5059378;28;20490;-48
2022/01/29 02:25:48;;;;;;;17.33;7.83;;;5.80;83.70;;;;;;5057449;28;20462;-48
2022/01/29 02:28:21;;;;;;;10.53;7.37;;;5.80;83.70;;;;;;5058632;28;20454;-48
2022/01/29 02:30:50;;;;;;;9.57;6.57;;;5.80;83.70;;;;;;5068276;28;20454;-49
2022/01/29 02:33:18;;;;;;;15.60;7.37;;;5.80;83.80;;;;;;5039898;28;20497;-48
2022/01/29 02:35:50;;;;;;;12.07;6.77;;;5.80;83.90;;;;;;5057754;28;20468;-48
2022/01/29 02:38:21;;;;;;;12.67;7.67;;;5.80;83.80;;;;;;5070448;28;20525;-48
2022/01/29 02:40:50;;;;;;;9.27;6.57;;;5.80;83.70;;;;;;5055294;28;20497;-48
2022/01/29 02:43:25;;;;;;;10.30;6.43;;;5.80;83.80;;;;;;5057774;28;20462;-48
2022/01/29 02:45:53;;;;;;;19.23;12.10;;;5.80;83.80;;;;;;5032059;28;20455;-48
2022/01/29 02:48:22;;;;;;;15.20;8.33;;;5.80;83.80;;;;;;5060168;28;20454;-48
2022/01/29 02:50:49;;;;;;;9.80;7.03;;;5.80;84.00;;;;;;5048155;28;20457;-48
2022/01/29 02:53:17;;;;;;;11.70;6.83;;;5.80;83.80;;;;;;5054534;28;20487;-48
2022/01/29 02:55:44;;;;;;;12.97;8.53;;;5.80;83.80;;;;;;5056410;28;20453;-48
2022/01/29 02:58:10;;;;;;;12.20;7.53;;;5.80;83.80;;;;;;5058877;28;20462;-48
2022/01/29 03:00:37;;;;;;;15.17;8.47;;;5.80;84.00;;;;;;5054808;28;20462;-48
2022/01/29 03:03:04;;;;;;;12.03;7.60;;;5.80;84.10;;;;;;5042059;28;20470;-48
2022/01/29 03:05:31;;;;;;;13.30;8.20;;;5.80;83.80;;;;;;5062433;28;20472;-48
2022/01/29 03:07:58;;;;;;;15.93;8.83;;;5.70;83.90;;;;;;5053537;28;20459;-49
2022/01/29 03:10:25;;;;;;;13.70;8.70;;;5.70;84.10;;;;;;5057649;28;20579;-49
2022/01/29 03:12:53;;;;;;;11.13;8.03;;;5.70;84.30;;;;;;5052311;28;20514;-48
2022/01/29 03:15:20;;;;;;;15.63;9.10;;;5.70;84.40;;;;;;5057870;28;20531;-48
2022/01/29 03:17:48;;;;;;;17.50;8.70;;;5.70;84.40;;;;;;5031546;28;20455;-48
2022/01/29 03:20:15;;;;;;;16.67;9.03;;;5.60;84.40;;;;;;5052753;28;20496;-49
2022/01/29 03:22:42;;;;;;;14.83;9.17;;;5.60;84.50;;;;;;5052165;28;20504;-48
2022/01/29 03:25:09;;;;;;;14.20;9.00;;;5.60;84.60;;;;;;5055355;28;20464;-48
2022/01/29 03:27:36;;;;;;;14.87;9.17;;;5.60;84.60;;;;;;5055540;28;20489;-48
2022/01/29 03:30:04;;;;;;;17.00;10.00;;;5.70;84.50;;;;;;5060395;28;21023;-49
2022/01/29 03:32:31;;;;;;;23.23;9.90;;;5.70;84.50;;;;;;5059854;28;20551;-49
2022/01/29 03:34:58;;;;;;;13.40;9.40;;;5.70;84.50;;;;;;5053642;28;20474;-48
2022/01/29 03:37:25;;;;;;;15.03;8.17;;;5.60;84.50;;;;;;5053175;28;20466;-48
2022/01/29 03:39:53;;;;;;;13.00;8.40;;;5.60;84.60;;;;;;5055995;28;20459;-48
2022/01/29 03:42:20;;;;;;;17.27;9.60;;;5.60;84.50;;;;;;5043884;28;20466;-49
2022/01/29 03:44:48;;;;;;;15.53;9.40;;;5.60;84.60;;;;;;5052554;28;20474;-49
2022/01/29 03:47:15;;;;;;;15.90;10.93;;;5.60;84.60;;;;;;5054317;28;20497;-48
2022/01/29 03:49:44;;;;;;;17.00;10.63;;;5.70;84.60;;;;;;5057821;28;20477;-48
2022/01/29 03:52:13;;;;;;;13.73;9.07;;;5.70;84.40;;;;;;5034883;28;20483;-49
2022/01/29 03:54:40;;;;;;;12.70;8.37;;;5.70;84.20;;;;;;5038802;28;20466;-47
2022/01/29 03:57:07;;;;;;;14.17;9.10;;;5.70;84.20;;;;;;5040889;28;20478;-47
2022/01/29 03:59:33;;;;;;;15.43;9.63;;;5.70;84.50;;;;;;5039292;28;20949;-47
2022/01/29 04:02:01;;;;;;;16.13;9.63;;;5.70;84.50;;;;;;5040570;28;20473;-47
2022/01/29 04:04:28;;;;;;;20.80;9.90;;;5.70;84.50;;;;;;5034746;28;20467;-47
2022/01/29 04:06:59;;;;;;;15.03;8.33;;;5.70;84.50;;;;;;5039385;28;20466;-47
2022/01/29 04:09:28;;;;;;;18.00;9.97;;;5.70;84.40;;;;;;5025738;28;20604;-47
2022/01/29 04:11:54;;;;;;;14.50;8.50;;;5.70;84.30;;;;;;5039710;28;20483;-47
2022/01/29 04:14:32;;;;;;;14.67;9.33;;;5.70;84.40;;;;;;5030398;28;20468;-47
2022/01/29 04:16:58;;;;;;;25.50;12.53;;;5.70;84.40;;;;;;5028691;28;20440;-47
2022/01/29 04:19:25;;;;;;;16.50;9.73;;;5.70;84.40;;;;;;5039994;28;20453;-47
2022/01/29 04:21:52;;;;;;;15.33;9.17;;;5.70;84.40;;;;;;5037185;28;20454;-47
2022/01/29 04:24:19;;;;;;;16.33;9.70;;;5.70;84.40;;;;;;5040849;28;20482;-47
2022/01/29 04:26:45;;;;;;;17.77;8.77;;;5.70;84.50;;;;;;5043000;28;20897;-47
2022/01/29 04:29:12;;;;;;;15.13;9.00;;;5.70;84.40;;;;;;5040827;28;20545;-47
2022/01/29 04:31:55;;;;;;;16.50;8.97;;;5.70;84.50;;;;;;5039778;28;20925;-47
2022/01/29 04:34:22;;;;;;;18.37;9.07;;;5.70;84.60;;;;;;5042928;28;20482;-47
2022/01/29 04:36:49;;;;;;;14.30;8.90;;;5.70;84.50;;;;;;5038248;28;20953;-47
2022/01/29 04:39:16;;;;;;;20.27;10.17;;;5.70;84.60;;;;;;5046440;28;20464;-47
2022/01/29 04:41:42;;;;;;;15.10;7.90;;;5.70;84.40;;;;;;5041334;28;20828;-47
2022/01/29 04:44:09;;;;;;;15.87;9.40;;;5.70;84.40;;;;;;5030211;28;20771;-47
2022/01/29 04:46:36;;;;;;;14.50;10.43;;;5.60;84.50;;;;;;5047666;28;20447;-47
2022/01/29 04:49:03;;;;;;;17.27;8.63;;;5.60;84.70;;;;;;5032233;28;20456;-47
2022/01/29 04:51:30;;;;;;;14.10;8.97;;;5.60;84.50;;;;;;5025215;28;21020;-47
2022/01/29 04:53:56;;;;;;;17.27;8.57;;;5.60;84.60;;;;;;5029524;28;20504;-47
2022/01/29 04:56:23;;;;;;;14.27;8.33;;;5.60;84.70;;;;;;5043744;28;20462;-47
2022/01/29 04:58:50;;;;;;;16.37;8.50;;;5.60;84.60;;;;;;5043729;28;20940;-47
2022/01/29 05:01:16;;;;;;;17.17;8.97;;;5.60;84.60;;;;;;5037979;28;20459;-47
2022/01/29 05:03:43;;;;;;;16.13;9.40;;;5.60;84.70;;;;;;5044428;28;20466;-47
2022/01/29 05:06:12;;;;;;;17.07;9.27;;;5.60;84.70;;;;;;5043729;28;20839;-47
2022/01/29 05:08:39;;;;;;;13.43;7.70;;;5.60;84.50;;;;;;5060203;28;20470;-47
2022/01/29 05:11:08;;;;;;;14.53;7.63;;;5.60;84.60;;;;;;5040600;28;20487;-47
2022/01/29 05:13:38;;;;;;;12.13;7.60;;;5.60;84.70;;;;;;5041814;28;20486;-47
2022/01/29 05:16:28;;;;;;;14.13;6.40;;;5.60;84.60;;;;;;5041319;28;20458;-47
2022/01/29 05:27:12;;;;;;;12.83;7.57;;;5.60;84.30;;;;;;5042002;28;20553;-47
2022/01/29 05:29:38;;;;;;;11.00;7.23;;;5.60;84.30;;;;;;5043760;28;20470;-47
2022/01/29 05:32:07;;;;;;;10.60;6.80;;;5.60;84.30;;;;;;5040295;28;20485;-47
2022/01/29 05:34:35;;;;;;;12.50;6.60;;;5.60;84.60;;;;;;5039600;28;20462;-47
2022/01/29 05:37:03;;;;;;;12.43;6.83;;;5.60;84.40;;;;;;5044420;28;20963;-47
2022/01/29 05:39:31;;;;;;;12.90;6.77;;;5.60;84.40;;;;;;5040825;28;20458;-47
2022/01/29 05:41:59;;;;;;;9.70;6.00;;;5.60;84.20;;;;;;5043612;28;20455;-47
2022/01/29 05:44:26;;;;;;;9.73;6.20;;;5.60;84.30;;;;;;5057599;28;20497;-47
2022/01/29 05:46:53;;;;;;;12.37;6.80;;;5.60;84.60;;;;;;5042080;28;20451;-47
2022/01/29 05:49:20;;;;;;;15.03;7.97;;;5.60;84.70;;;;;;5040569;28;20545;-46
2022/01/29 05:51:47;;;;;;;11.00;6.80;;;5.60;84.30;;;;;;5041070;28;20465;-46
2022/01/29 05:54:14;;;;;;;12.13;7.07;;;5.60;84.50;;;;;;5042656;28;20445;-46
2022/01/29 05:56:42;;;;;;;12.50;7.00;;;5.60;84.50;;;;;;5040660;28;20886;-46
2022/01/29 05:59:09;;;;;;;11.87;7.03;;;5.60;84.60;;;;;;5041475;28;21007;-46
2022/01/29 06:01:36;;;;;;;12.87;6.73;;;5.60;84.90;;;;;;5041104;28;20466;-46
2022/01/29 06:04:05;;;;;;;13.87;9.70;;;5.60;84.90;;;;;;5038660;28;20544;-46
2022/01/29 06:06:32;;;;;;;11.10;7.90;;;5.60;84.80;;;;;;5040777;28;20982;-46
2022/01/29 06:09:04;;;;;;;11.37;7.03;;;5.70;84.70;;;;;;5023240;28;20542;-47
2022/01/29 06:11:34;;;;;;;12.43;7.30;;;5.70;84.70;;;;;;5027438;28;20534;-47
2022/01/29 06:14:01;;;;;;;11.90;7.60;;;5.70;84.80;;;;;;5040344;28;20482;-46
2022/01/29 06:16:28;;;;;;;11.73;7.57;;;5.70;85.10;;;;;;5043114;28;20457;-47
2022/01/29 06:18:55;;;;;;;11.90;8.03;;;5.70;85.00;;;;;;5045134;28;20462;-47
2022/01/29 06:21:22;;;;;;;12.73;7.83;;;5.80;84.90;;;;;;5040699;28;20457;-47
2022/01/29 06:23:49;;;;;;;9.97;6.90;;;5.80;84.70;;;;;;5021934;28;20481;-46
2022/01/29 06:26:16;;;;;;;11.10;7.27;;;5.80;84.70;;;;;;5038260;28;20445;-46
2022/01/29 06:28:44;;;;;;;14.13;6.60;;;5.80;84.40;;;;;;5039385;28;20494;-46
2022/01/29 06:31:10;;;;;;;11.27;6.73;;;5.80;84.40;;;;;;5042155;28;20459;-46
2022/01/29 06:33:37;;;;;;;11.23;7.73;;;5.80;84.50;;;;;;5029201;28;20497;-46
2022/01/29 06:36:05;;;;;;;10.27;7.13;;;5.80;84.60;;;;;;5021756;28;20454;-46
2022/01/29 06:38:32;;;;;;;9.97;7.17;;;5.80;84.90;;;;;;5038939;28;20462;-46
2022/01/29 06:40:59;;;;;;;10.70;7.60;;;5.80;84.90;;;;;;5040840;28;20452;-46
2022/01/29 06:43:26;;;;;;;11.17;7.23;;;5.80;85.00;;;;;;5042076;28;20467;-46
2022/01/29 06:45:54;;;;;;;13.63;6.93;;;5.80;85.00;;;;;;5037854;28;20455;-46
2022/01/29 06:48:21;;;;;;;14.47;7.73;;;5.70;85.10;;;;;;5038496;28;20463;-46
2022/01/29 06:50:48;;;;;;;16.20;9.47;;;5.80;85.10;;;;;;5038581;28;20468;-46
2022/01/29 06:53:15;;;;;;;12.80;8.07;;;5.70;85.10;;;;;;5019508;28;20999;-46
2022/01/29 06:55:42;;;;;;;11.10;7.13;;;5.70;85.30;;;;;;5046247;28;20492;-46
2022/01/29 06:58:08;;;;;;;13.63;7.10;;;5.70;85.30;;;;;;5021488;28;20447;-46
2022/01/29 07:00:55;;;;;;;9.67;6.63;;;5.70;85.40;;;;;;5042885;28;20438;-46
2022/01/29 07:03:22;;;;;;;14.33;8.03;;;5.70;85.60;;;;;;5029927;28;20505;-46
2022/01/29 07:05:49;;;;;;;11.87;7.20;;;5.70;85.70;;;;;;5040055;28;20489;-46
2022/01/29 07:08:16;;;;;;;12.40;7.33;;;5.70;85.90;;;;;;5038127;28;20487;-46
2022/01/29 07:10:46;;;;;;;9.60;7.03;;;5.70;86.20;;;;;;5036997;28;20450;-47
2022/01/29 07:13:13;;;;;;;15.83;8.33;;;5.70;86.40;;;;;;5027154;28;20483;-46
2022/01/29 07:15:40;;;;;;;12.57;8.63;;;5.60;86.60;;;;;;5045200;28;20454;-46
2022/01/29 07:18:06;;;;;;;15.67;9.00;;;5.60;86.50;;;;;;5029694;28;20450;-46
2022/01/29 07:20:33;;;;;;;11.23;8.70;;;5.70;86.30;;;;;;5044440;28;20443;-46
2022/01/29 07:23:06;;;;;;;12.57;7.77;;;5.70;86.00;;;;;;5042297;28;20497;-47
2022/01/29 07:25:33;;;;;;;14.30;8.97;;;5.70;85.70;;;;;;5042512;28;20454;-46
2022/01/29 07:27:59;;;;;;;15.47;9.10;;;5.70;85.80;;;;;;5053557;28;20959;-46
2022/01/29 07:30:26;;;;;;;14.23;8.03;;;5.70;85.90;;;;;;5038687;28;20515;-46
2022/01/29 07:32:53;;;;;;;12.90;7.70;;;5.60;86.20;;;;;;5038747;28;20482;-46
2022/01/29 07:35:20;;;;;;;9.93;7.13;;;5.60;86.20;;;;;;5067244;28;20468;-48
2022/01/29 07:37:51;;;;;;;13.73;7.43;;;5.60;86.00;;;;;;5052896;28;20506;-47
2022/01/29 07:40:18;;;;;;;14.90;8.13;;;5.60;85.80;;;;;;5054124;28;20457;-48
2022/01/29 07:42:45;;;;;;;11.47;7.20;;;5.60;85.80;;;;;;5054788;28;20558;-48
2022/01/29 07:45:11;;;;;;;9.77;6.40;;;5.60;85.90;;;;;;5055252;28;20451;-48
2022/01/29 07:47:38;;;;;;;13.63;7.90;;;5.70;85.70;;;;;;5051871;28;20467;-48
2022/01/29 07:50:05;;;;;;;15.73;8.73;;;5.70;85.60;;;;;;5049574;28;20545;-48
2022/01/29 07:52:32;;;;;;;8.87;6.27;;;5.70;85.60;;;;;;5039741;28;20469;-48
2022/01/29 07:55:04;;;;;;;7.60;4.70;;;5.80;85.40;;;;;;5061111;28;20450;-47
2022/01/29 07:57:31;;;;;;;8.17;5.57;;;5.80;84.80;;;;;;5058213;28;20499;-47
2022/01/29 07:59:58;;;;;;;6.50;5.10;;;5.80;84.60;;;;;;5057894;28;20468;-47
2022/01/29 08:02:25;;;;;;;9.23;5.53;;;5.80;84.50;;;;;;5057295;28;20554;-48
2022/01/29 08:04:52;;;;;;;8.77;5.60;;;5.90;84.50;;;;;;5048634;28;20501;-47
2022/01/29 08:07:19;;;;;;;5.93;5.00;;;5.90;83.90;;;;;;5080617;28;20519;-48
2022/01/29 08:09:46;;;;;;;6.00;4.43;;;5.90;84.20;;;;;;5059786;28;20456;-48
2022/01/29 08:12:12;;;;;;;10.27;5.27;;;5.90;84.40;;;;;;5057050;28;20470;-48
2022/01/29 08:14:39;;;;;;;6.77;5.17;;;5.90;84.50;;;;;;5046503;28;20490;-47
2022/01/29 08:17:07;;;;;;;7.83;4.20;;;5.90;84.40;;;;;;5062083;28;20620;-48
2022/01/29 08:19:34;;;;;;;5.77;4.97;;;6.00;84.40;;;;;;5066175;28;20848;-48
2022/01/29 08:22:06;;;;;;;9.10;5.40;;;6.00;83.60;;;;;;5063459;28;20517;-48
2022/01/29 08:24:33;;;;;;;6.37;4.73;;;6.00;83.70;;;;;;5061946;28;20462;-48
2022/01/29 08:26:59;;;;;;;6.63;4.70;;;6.00;83.80;;;;;;5061694;28;20461;-50
2022/01/29 08:29:26;;;;;;;6.80;4.57;;;6.00;83.70;;;;;;5056040;28;20723;-49
2022/01/29 08:31:53;;;;;;;4.00;3.60;;;5.90;83.80;;;;;;5060617;28;20476;-48
2022/01/29 08:34:20;;;;;;;5.10;4.10;;;5.90;83.80;;;;;;5067141;28;20543;-48
2022/01/29 08:36:48;;;;;;;4.43;3.80;;;5.90;83.60;;;;;;5045335;28;20516;-49
2022/01/29 08:39:16;;;;;;;8.20;4.10;;;5.90;83.90;;;;;;5061458;28;20927;-47
2022/01/29 08:41:42;;;;;;;5.03;3.40;;;5.90;84.20;;;;;;5040712;28;20510;-47
2022/01/29 08:44:09;;;;;;;4.80;3.27;;;5.90;84.20;;;;;;5047313;28;20468;-48
2022/01/29 08:46:36;;;;;;;4.57;3.90;;;5.90;84.50;;;;;;5060166;28;20459;-47
2022/01/29 08:49:03;;;;;;;4.70;3.90;;;5.90;84.50;;;;;;5073460;28;20482;-48
2022/01/29 08:51:32;;;;;;;5.00;3.87;;;5.90;84.60;;;;;;5050359;28;20502;-48
2022/01/29 08:53:59;;;;;;;6.30;3.43;;;5.90;84.60;;;;;;5047595;28;20492;-47
2022/01/29 08:56:26;;;;;;;5.17;4.27;;;5.90;84.40;;;;;;5059785;28;20530;-48
2022/01/29 08:58:53;;;;;;;6.37;3.40;;;5.90;84.60;;;;;;5040043;28;20510;-48
2022/01/29 09:01:20;;;;;;;4.40;3.57;;;5.90;84.80;;;;;;5058862;28;20516;-47
2022/01/29 09:03:47;;;;;;;5.27;3.70;;;5.90;84.90;;;;;;5058440;28;20466;-47
2022/01/29 09:06:14;;;;;;;4.60;3.30;;;5.90;84.80;;;;;;5062505;28;20494;-47
2022/01/29 09:08:41;;;;;;;4.90;3.27;;;5.90;84.80;;;;;;5058969;28;20519;-48
2022/01/29 09:11:08;;;;;;;4.43;4.03;;;5.90;85.10;;;;;;5055469;28;20466;-47
2022/01/29 09:13:35;;;;;;;5.37;3.53;;;6.00;84.70;;;;;;5061828;28;20596;-48
2022/01/29 09:16:02;;;;;;;4.30;2.70;;;6.00;84.80;;;;;;5050049;28;20454;-47
2022/01/29 09:18:29;;;;;;;3.87;3.03;;;6.00;84.80;;;;;;5056155;28;20462;-47
2022/01/29 09:20:56;;;;;;;3.77;2.20;;;6.00;84.60;;;;;;5023233;28;20474;-46
2022/01/29 09:23:23;;;;;;;4.53;3.00;;;6.00;84.50;;;;;;5044511;28;20489;-46
2022/01/29 09:25:59;;;;;;;2.30;2.10;;;6.00;84.60;;;;;;5040176;28;20462;-46
2022/01/29 09:28:25;;;;;;;2.87;2.57;;;5.90;84.90;;;;;;5055505;28;20905;-46
2022/01/29 09:30:52;;;;;;;2.27;2.17;;;5.90;84.80;;;;;;5054704;28;20459;-47
2022/01/29 09:33:19;;;;;;;4.37;2.73;;;5.90;85.00;;;;;;5047341;28;20486;-46
2022/01/29 09:35:47;;;;;;;2.40;2.20;;;5.90;84.80;;;;;;5039391;28;20454;-46
2022/01/29 09:38:14;;;;;;;2.93;2.03;;;5.90;85.20;;;;;;5035170;28;20987;-46
2022/01/29 09:40:42;;;;;;;2.40;2.20;;;6.00;85.30;;;;;;5026467;28;20484;-46
2022/01/29 09:43:11;;;;;;;3.33;2.03;;;6.00;85.30;;;;;;5025815;28;20471;-47
2022/01/29 09:45:38;;;;;;;3.60;2.17;;;6.00;85.40;;;;;;5040112;28;20824;-46
2022/01/29 09:48:06;;;;;;;2.40;2.20;;;6.00;85.20;;;;;;5041808;28;20484;-46
2022/01/29 09:50:35;;;;;;;2.60;2.40;;;6.00;84.80;;;;;;5040502;28;20838;-46
2022/01/29 09:53:03;;;;;;;7.00;2.60;;;6.10;84.80;;;;;;5036546;28;20507;-47
2022/01/29 09:55:31;;;;;;;2.70;2.50;;;6.10;84.60;;;;;;5046119;28;20464;-46
2022/01/29 09:57:59;;;;;;;3.20;2.63;;;6.00;84.80;;;;;;5039184;28;20459;-46
2022/01/29 10:00:26;;;;;;;3.13;2.83;;;6.10;84.70;;;;;;5038268;28;20562;-46
2022/01/29 10:03:11;;;;;;;2.53;2.30;;;6.10;84.80;;;;;;5059770;28;20549;-46
2022/01/29 10:05:45;;;;;;;2.60;2.27;;;6.10;85.00;;;;;;5039468;28;20466;-46
2022/01/29 10:08:12;;;;;;;2.40;2.10;;;6.10;84.90;;;;;;5038992;28;20457;-47
2022/01/29 10:10:39;;;;;;;2.50;2.30;;;6.20;84.60;;;;;;5039327;28;20459;-46
2022/01/29 10:13:35;;;;;;;1.73;1.60;;;6.20;84.80;;;;;;5037959;28;20963;-47
2022/01/29 10:16:11;;;;;;;2.93;2.20;;;6.10;85.00;;;;;;5042723;28;20442;-46
2022/01/29 10:18:40;;;;;;;2.10;1.90;;;6.20;85.20;;;;;;5043832;28;20438;-46
2022/01/29 10:21:22;;;;;;;2.60;1.53;;;6.20;85.20;;;;;;5035599;28;20456;-46
2022/01/29 10:24:09;;;;;;;2.53;1.67;;;6.20;85.10;;;;;;5038481;28;20557;-46
2022/01/29 10:26:36;;;;;;;2.60;2.33;;;6.20;85.10;;;;;;5041330;28;20494;-46
2022/01/29 10:29:07;;;;;;;3.00;2.70;;;6.20;85.20;;;;;;5045588;28;20454;-46
2022/01/29 10:31:45;;;;;;;2.07;1.97;;;6.20;85.10;;;;;;5041113;28;20504;-46
2022/01/29 10:34:25;;;;;;;2.37;2.13;;;6.20;85.00;;;;;;5035170;28;20487;-47
2022/01/29 10:37:14;;;;;;;2.70;2.00;;;6.30;85.10;;;;;;5038761;28;20441;-46
2022/01/29 10:39:45;;;;;;;2.17;1.73;;;6.30;84.60;;;;;;5039682;28;20443;-46
2022/01/29 10:42:24;;;;;;;2.13;1.70;;;6.40;84.50;;;;;;5035265;28;20448;-46
2022/01/29 10:44:59;;;;;;;1.80;1.70;;;6.40;84.60;;;;;;5041076;28;20723;-46
2022/01/29 10:47:27;;;;;;;2.10;1.90;;;6.40;84.60;;;;;;5043812;28;21056;-46
2022/01/29 10:50:02;;;;;;;2.10;1.90;;;6.50;84.40;;;;;;5039261;28;20473;-46
2022/01/29 10:52:34;;;;;;;3.03;2.10;;;6.50;84.20;;;;;;5040926;28;20980;-47
2022/01/29 10:55:05;;;;;;;2.60;1.80;;;6.50;84.00;;;;;;5040558;28;20485;-46
2022/01/29 10:57:37;;;;;;;2.20;2.00;;;6.50;84.10;;;;;;5045684;28;20478;-46
2022/01/29 11:00:22;;;;;;;1.63;1.53;;;6.50;84.10;;;;;;5039445;28;20534;-47
2022/01/29 11:02:51;;;;;;;2.73;2.53;;;6.50;84.20;;;;;;5021737;28;20459;-47
2022/01/29 11:05:19;;;;;;;2.87;2.50;;;6.50;84.30;;;;;;5040146;28;20459;-47
2022/01/29 11:07:50;;;;;;;2.93;2.20;;;6.60;84.00;;;;;;5045263;28;20459;-47
2022/01/29 11:10:20;;;;;;;2.80;2.20;;;6.60;84.00;;;;;;5041974;28;20797;-47
2022/01/29 11:12:48;;;;;;;2.00;1.87;;;6.60;83.80;;;;;;5027686;28;20446;-46
2022/01/29 11:15:17;;;;;;;2.50;2.00;;;6.60;83.80;;;;;;5046725;28;20479;-47
2022/01/29 11:17:45;;;;;;;2.30;2.10;;;6.60;84.00;;;;;;5026635;28;20462;-46
2022/01/29 11:20:13;;;;;;;2.47;2.27;;;6.70;84.00;;;;;;5046935;28;20450;-46
2022/01/29 11:22:43;;;;;;;2.60;2.40;;;6.70;83.90;;;;;;5044351;28;20488;-47
2022/01/29 11:25:22;;;;;;;2.70;2.47;;;6.70;84.20;;;;;;5040196;28;20481;-47
2022/01/29 11:28:16;;;;;;;2.67;2.47;;;6.70;84.50;;;;;;5040850;28;20466;-46
2022/01/29 11:30:44;;;;;;;2.50;2.30;;;6.70;84.60;;;;;;5044397;28;20894;-46
2022/01/29 11:33:11;;;;;;;2.07;1.97;;;6.70;84.80;;;;;;5026337;28;20450;-46
2022/01/29 11:35:57;;;;;;;2.80;1.90;;;6.70;84.80;;;;;;5037551;28;20862;-46
2022/01/29 11:38:33;;;;;;;3.07;2.77;;;6.70;84.90;;;;;;5042145;28;20454;-46
2022/01/29 11:41:02;;;;;;;2.40;2.20;;;6.70;84.80;;;;;;5045713;28;21002;-46
2022/01/29 11:43:35;;;;;;;5.40;2.30;;;6.70;85.00;;;;;;5043773;28;20449;-46
2022/01/29 11:46:31;;;;;;;2.70;2.50;;;6.70;85.00;;;;;;5043474;28;20537;-46
2022/01/29 11:49:17;;;;;;;2.60;2.40;;;6.70;85.10;;;;;;5035503;28;20980;-46
2022/01/29 11:51:49;;;;;;;2.57;2.37;;;6.70;84.90;;;;;;5042489;28;20461;-46
2022/01/29 11:54:22;;;;;;;2.70;2.50;;;6.70;84.80;;;;;;5042543;28;20569;-46
2022/01/29 11:57:05;;;;;;;2.53;2.27;;;6.70;84.90;;;;;;5031151;28;20455;-46
2022/01/29 11:59:34;;;;;;;5.03;3.60;;;6.80;84.50;;;;;;5041030;28;20533;-46
2022/01/29 12:02:16;;;;;;;3.90;3.60;;;6.80;84.40;;;;;;5040837;28;20868;-46
2022/01/29 12:04:50;;;;;;;2.50;2.30;;;6.80;84.30;;;;;;5041694;28;20443;-46
2022/01/29 12:07:25;;;;;;;2.30;2.10;;;6.80;84.60;;;;;;5057364;28;20541;-46
2022/01/29 12:10:08;;;;;;;3.90;2.50;;;6.80;84.70;;;;;;5040774;28;20462;-46
2022/01/29 12:12:36;;;;;;;2.63;2.43;;;6.80;84.60;;;;;;5043980;28;20474;-46
2022/01/29 12:15:09;;;;;;;2.10;2.00;;;6.80;84.60;;;;;;5026465;28;20487;-46
2022/01/29 12:17:42;;;;;;;3.27;2.10;;;6.80;84.30;;;;;;5043324;28;20560;-46
2022/01/29 12:20:15;;;;;;;2.23;2.07;;;6.90;84.40;;;;;;5045644;28;20447;-47
2022/01/29 12:22:43;;;;;;;2.40;1.93;;;6.90;84.00;;;;;;5060256;28;20525;-46
2022/01/29 12:25:18;;;;;;;2.00;1.90;;;6.90;84.10;;;;;;5044427;28;20460;-48
2022/01/29 12:27:55;;;;;;;2.00;1.80;;;7.00;83.80;;;;;;5040517;28;20466;-47
2022/01/29 12:30:23;;;;;;;1.73;1.63;;;7.00;83.90;;;;;;5032517;28;20463;-47
2022/01/29 12:33:08;;;;;;;4.40;2.03;;;7.00;83.70;;;;;;5024370;28;20459;-47
2022/01/29 12:35:51;;;;;;;2.53;2.33;;;7.00;84.00;;;;;;5043261;28;20484;-48
2022/01/29 12:38:32;;;;;;;1.93;1.70;;;7.00;83.70;;;;;;5042239;28;20459;-47
2022/01/29 12:41:11;;;;;;;1.90;1.77;;;7.10;83.80;;;;;;5019550;28;20956;-48
2022/01/29 12:43:51;;;;;;;1.70;1.60;;;7.10;83.50;;;;;;5057958;28;20862;-47
2022/01/29 12:46:22;;;;;;;2.10;1.90;;;7.10;83.50;;;;;;5046438;28;20449;-48
2022/01/29 12:48:58;;;;;;;2.37;2.20;;;7.10;83.70;;;;;;5041095;28;20461;-48
2022/01/29 12:51:24;;;;;;;2.17;1.70;;;7.10;83.70;;;;;;5058375;28;20509;-48
2022/01/29 12:53:56;;;;;;;1.57;1.40;;;7.10;83.90;;;;;;5045772;28;20455;-46
2022/01/29 12:56:30;;;;;;;2.73;1.90;;;7.10;83.90;;;;;;5026997;28;20462;-46
2022/01/29 12:59:00;;;;;;;2.23;2.03;;;7.10;83.90;;;;;;5051424;28;20461;-46
2022/01/29 13:01:27;;;;;;;3.13;2.10;;;7.10;84.10;;;;;;5045265;28;20827;-48
2022/01/29 13:04:16;;;;;;;2.67;2.40;;;7.20;84.20;;;;;;5036055;28;20528;-46
2022/01/29 13:06:45;;;;;;;2.50;2.30;;;7.20;84.00;;;;;;5047286;28;21033;-46
2022/01/29 13:09:16;;;;;;;2.50;2.00;;;7.20;83.60;;;;;;5030119;28;20545;-46